Home > Products > Valid Products > TAF

000
FTUS42 KKEY 231700
TAFEYW
TAF
KEYW 231740Z 2318/2418 13010KT P6SM FEW025
     FM240000 16010KT P6SM FEW030=



000
FTUS42 KKEY 231700
TAFEYW
TAF
KEYW 231740Z 2318/2418 13010KT P6SM FEW025
     FM240000 16010KT P6SM FEW030=



000
FTUS42 KKEY 231700
TAFMTH
TAF
KMTH 231740Z 2318/2418 13008KT P6SM FEW025
     FM240000 16010KT P6SM FEW030=



000
FTUS42 KKEY 231400 AAA
TAFEYW
TAF AMD
KEYW 231500Z 2315/2412 13010KT P6SM SCT025=



000
FTUS42 KKEY 231400 AAA
TAFMTH
TAF AMD
KMTH 231500Z 2315/2412 13010G16KT P6SM FEW025=



000
FTUS42 KKEY 231400 AAA
TAFEYW
TAF AMD
KEYW 231500Z 2315/2412 13010KT P6SM SCT025=



000
FTUS42 KKEY 231100
TAFMTH
TAF
KMTH 231126Z 2312/2412 13010KT P6SM SCT025=



000
FTUS42 KKEY 231100
TAFEYW
TAF
KEYW 231126Z 2312/2412 13010KT P6SM SCT025=



000
FTUS42 KKEY 231100
TAFEYW
TAF
KEYW 231126Z 2312/2412 13010KT P6SM SCT025=



000
FTUS42 KKEY 230800 AAA
TAFEYW
TAF AMD
KEYW 230859Z 2309/2406 13010KT P6SM SCT025=



000
FTUS42 KKEY 230800 AAA
TAFEYW
TAF AMD
KEYW 230859Z 2309/2406 13010KT P6SM SCT025=



000
FTUS42 KKEY 230500
TAFEYW
TAF
KEYW 230521Z 2306/2406 12012G18KT P6SM SCT025
     FM231500 13010KT P6SM SCT025=



000
FTUS42 KKEY 230500
TAFMTH
TAF
KMTH 230521Z 2306/2406 11010G15KT P6SM SCT025
     FM231500 13010KT P6SM SCT025=



000
FTUS42 KKEY 230500
TAFEYW
TAF
KEYW 230521Z 2306/2406 12012G18KT P6SM SCT025
     FM231500 13010KT P6SM SCT025=



000
FTUS42 KKEY 222300
TAFEYW
TAF
KEYW 222327Z 2300/2324 10012G18KT P6SM VCSH SCT020 SCT030
     FM230400 10010KT P6SM SCT020 BKN040
     FM231200 12012KT P6SM SCT025=



000
FTUS42 KKEY 222300
TAFMTH
TAF
KMTH 222327Z 2300/2324 09013KT P6SM VCSH FEW025 SCT030 BKN050
     FM230100 09010KT P6SM SCT020 BKN040
     FM231200 12012KT P6SM SCT025=



000
FTUS42 KKEY 222300
TAFEYW
TAF
KEYW 222327Z 2300/2324 10012G18KT P6SM VCSH SCT020 SCT030
     FM230400 10010KT P6SM SCT020 BKN040
     FM231200 12012KT P6SM SCT025=



000
FTUS42 KKEY 222100 AAA
TAFMTH
TAF AMD
KMTH 222152Z 2222/2318 09012G20KT P6SM VCSH FEW025 SCT030
      TEMPO 2222/2223 09015G27KT 3SM SHRA BKN025
     FM230000 09010KT P6SM SCT025
     FM231200 12012KT P6SM SCT025=



000
FTUS42 KKEY 222100 AAA
TAFMTH
TAF AMD
KMTH 222152Z 2222/2318 09012G20KT P6SM VCSH FEW025 SCT030
      TEMPO 2222/2223 09015G27KT 3SM SHRA BKN025
     FM230000 09010KT P6SM SCT025
     FM231200 12012KT P6SM SCT025=



000
FTUS42 KKEY 221700
TAFEYW
TAF
KEYW 221740Z 2218/2318 10012G18KT P6SM VCSH SCT020 SCT030
     FM230000 10010KT P6SM SCT030
     FM231200 12012KT P6SM SCT025=



000
FTUS42 KKEY 221700
TAFMTH
TAF
KMTH 221740Z 2218/2318 09012G20KT P6SM VCSH FEW025 SCT030
     FM230000 09010KT P6SM SCT025
     FM231200 12012KT P6SM SCT025=



000
FTUS42 KKEY 221700
TAFEYW
TAF
KEYW 221740Z 2218/2318 10012G18KT P6SM VCSH SCT020 SCT030
     FM230000 10010KT P6SM SCT030
     FM231200 12012KT P6SM SCT025=



000
FTUS42 KKEY 221500 AAB
TAFEYW
TAF AMD
KEYW 221500Z 2215/2312 10012G18KT P6SM VCSH FEW025 SCT040
     FM221800 10010KT P6SM SCT025=



000
FTUS42 KKEY 221500 AAB
TAFEYW
TAF AMD
KEYW 221500Z 2215/2312 10012G18KT P6SM VCSH FEW025 SCT040
     FM221800 10010KT P6SM SCT025=



000
FTUS42 KKEY 221300 AAA
TAFEYW
TAF AMD
KEYW 221352Z 2214/2312 07010G15KT P6SM VCSH FEW025 SCT035
     FM221800 10010KT P6SM SCT025=



000
FTUS42 KKEY 221300 AAA
TAFMTH
TAF AMD
KMTH 221352Z 2214/2312 08015G20KT P6SM VCSH FEW025 SCT035
     FM221800 09010KT P6SM SCT025=



000
FTUS42 KKEY 221300 AAA
TAFEYW
TAF AMD
KEYW 221352Z 2214/2312 07010G15KT P6SM VCSH FEW025 SCT035
     FM221800 10010KT P6SM SCT025=



000
FTUS42 KKEY 221100
TAFEYW
TAF
KEYW 221132Z 2212/2312 06010G15KT P6SM SCT020 BKN030
      TEMPO 2212/2216 BKN025
     FM221800 07010KT P6SM SCT025=



000
FTUS42 KKEY 221100
TAFMTH
TAF
KMTH 221132Z 2212/2312 06015G20KT P6SM SCT020 BKN030
      TEMPO 2212/2216 BKN025
     FM221800 07010KT P6SM SCT025=



000
FTUS42 KKEY 221100
TAFEYW
TAF
KEYW 221132Z 2212/2312 06010G15KT P6SM SCT020 BKN030
      TEMPO 2212/2216 BKN025
     FM221800 07010KT P6SM SCT025=



000
FTUS42 KKEY 220900 AAA
TAFEYW
TAF AMD
KEYW 220924Z 2209/2306 06010G15KT P6SM VCSH SCT025 BKN030
      TEMPO 2209/2213 BKN025
     FM221300 07010KT P6SM SCT025=



000
FTUS42 KKEY 220900 AAA
TAFEYW
TAF AMD
KEYW 220924Z 2209/2306 06010G15KT P6SM VCSH SCT025 BKN030
      TEMPO 2209/2213 BKN025
     FM221300 07010KT P6SM SCT025=



000
FTUS42 KKEY 220500
TAFEYW
TAF
KEYW 220523Z 2206/2306 06016G26KT P6SM VCSH SCT020 BKN030
      TEMPO 2206/2210 BKN025
     FM221200 07012G20KT P6SM SCT025=



000
FTUS42 KKEY 220500
TAFMTH
TAF
KMTH 220523Z 2206/2306 06015G26KT P6SM VCSH SCT020 BKN030
      TEMPO 2206/2210 BKN025
     FM221200 07012G20KT P6SM SCT025=



000
FTUS42 KKEY 220500
TAFEYW
TAF
KEYW 220523Z 2206/2306 06016G26KT P6SM VCSH SCT020 BKN030
      TEMPO 2206/2210 BKN025
     FM221200 07012G20KT P6SM SCT025=



000
FTUS42 KKEY 220200 AAA
TAFEYW
TAF AMD
KEYW 220203Z 2202/2224 04014G20KT P6SM VCSH SCT012 OVC070
      TEMPO 2202/2204 BKN020
     FM220700 06016G26KT P6SM VCSH SCT015 BKN030
     FM221200 07012G20KT P6SM SCT020 SCT080=



000
FTUS42 KKEY 220200 AAA
TAFEYW
TAF AMD
KEYW 220203Z 2202/2224 04014G20KT P6SM VCSH SCT012 OVC070
      TEMPO 2202/2204 BKN020
     FM220700 06016G26KT P6SM VCSH SCT015 BKN030
     FM221200 07012G20KT P6SM SCT020 SCT080=



000
FTUS42 KKEY 212300
TAFEYW
TAF
KEYW 212324Z 2200/2224 04014G20KT P6SM VCSH BKN008 OVC030
     FM220700 06016G26KT P6SM VCSH SCT015 BKN030
     FM221200 07012G20KT P6SM SCT020 SCT080=



000
FTUS42 KKEY 212300
TAFMTH
TAF
KMTH 212324Z 2200/2224 05014G20KT P6SM VCSH SCT008 BKN025 OVC060
     FM220300 06015G26KT P6SM SCT014 BKN030
     FM221200 07012G20KT P6SM SCT020 SCT080=



000
FTUS42 KKEY 212300
TAFEYW
TAF
KEYW 212324Z 2200/2224 04014G20KT P6SM VCSH BKN008 OVC030
     FM220700 06016G26KT P6SM VCSH SCT015 BKN030
     FM221200 07012G20KT P6SM SCT020 SCT080=



000
FTUS42 KKEY 212100 AAA
TAFMTH
TAF AMD
KMTH 212115Z 2121/2218 03014KT P6SM VCSH SCT008 BKN060
      TEMPO 2121/2122 5SM -RA BKN012
     FM212200 06015G22KT P6SM SCT014 BKN030
     FM221200 07012G20KT P6SM SCT020 SCT080=



000
FTUS42 KKEY 212000 AAA
TAFEYW
TAF AMD
KEYW 212046Z 2121/2218 04014G20KT P6SM VCSH SCT010 BKN040
      TEMPO 2123/2202 3SM +SHRA BKN008 OVC020
     FM220300 06016G22KT P6SM VCSH SCT015 BKN030
     FM221200 07012G20KT P6SM SCT020 SCT080=



000
FTUS42 KKEY 211700
TAFEYW
TAF
KEYW 211740Z 2118/2218 04014G20KT P6SM VCSH BKN010 BKN030
      TEMPO 2120/2122 5SM -SHRA OVC010
     FM212300 06016G22KT P6SM SCT015 BKN030
     FM221200 07012G20KT P6SM SCT020 SCT080=



000
FTUS42 KKEY 211700
TAFMTH
TAF
KMTH 211740Z 2118/2218 03014KT P6SM VCSH SCT008 BKN060
      TEMPO 2118/2121 03014G20KT 4SM RA BKN007 OVC040
     FM212300 06015G22KT P6SM SCT014 BKN030
     FM221200 07012G20KT P6SM SCT020 SCT080=



000
FTUS42 KKEY 211700
TAFEYW
TAF
KEYW 211740Z 2118/2218 04014G20KT P6SM VCSH BKN010 BKN030
      TEMPO 2120/2122 5SM -SHRA OVC010
     FM212300 06016G22KT P6SM SCT015 BKN030
     FM221200 07012G20KT P6SM SCT020 SCT080=



000
FTUS42 KKEY 211600 AAE
TAFMTH
TAF AMD
KMTH 211648Z 2117/2212 03014G20KT P6SM VCSH SCT006 BKN060
      TEMPO 2117/2118 3SM RA BKN006 OVC040
     FM212300 06015G22KT P6SM SCT020 BKN030=



000
FTUS42 KKEY 211500 AAB
TAFEYW
TAF AMD
KEYW 211500Z 2115/2212 04012G20KT P6SM VCSH SCT010 BKN030
      TEMPO 2115/2117 OVC010
     FM212300 06014G22KT P6SM SCT020 BKN030=



000
FTUS42 KKEY 211500 AAD
TAFMTH
TAF AMD
KMTH 211500Z 2115/2212 04012KT P6SM VCSH SCT006 BKN060
      TEMPO 2115/2118 04013G18KT 6SM RA BKN006 OVC040
     FM212300 06015G22KT P6SM SCT020 BKN030=



000
FTUS42 KKEY 211500 AAB
TAFEYW
TAF AMD
KEYW 211500Z 2115/2212 04012G20KT P6SM VCSH SCT010 BKN030
      TEMPO 2115/2117 OVC010
     FM212300 06014G22KT P6SM SCT020 BKN030=



000
FTUS42 KKEY 211400 AAC
TAFMTH
TAF AMD
KMTH 211423Z 2114/2212 05012G16KT 5SM RA BKN006 OVC040
      TEMPO 2114/2118 6SM SCT006 BKN030
     FM211800 06015G22KT P6SM SCT020 BKN050=



000
FTUS42 KKEY 211200 AAA
TAFEYW
TAF AMD
KEYW 211258Z 2113/2212 05012G20KT P6SM SCT010 BKN030
      TEMPO 2113/2115 5SM RA SCT010 BKN025
     FM211800 05014G22KT P6SM SCT025 BKN050=



000
FTUS42 KKEY 211200 AAB
TAFMTH
TAF AMD
KMTH 211258Z 2113/2212 05012G18KT P6SM SCT010 BKN030
      TEMPO 2113/2115 5SM RA
     FM211800 06015G22KT P6SM SCT020 BKN050=



000
FTUS42 KKEY 211200 AAA
TAFEYW
TAF AMD
KEYW 211258Z 2113/2212 05012G20KT P6SM SCT010 BKN030
      TEMPO 2113/2115 5SM RA SCT010 BKN025
     FM211800 05014G22KT P6SM SCT025 BKN050=



000
FTUS42 KKEY 211100 AAA
TAFMTH
TAF AMD
KMTH 211137Z 2112/2212 05012G20KT P6SM SCT010 BKN050
      TEMPO 2112/2116 RA BKN009
     FM211800 06015G22KT P6SM SCT020 BKN050=



000
FTUS42 KKEY 211100
TAFEYW
TAF
KEYW 211130Z 2112/2212 05012G20KT P6SM SCT010 BKN050
      TEMPO 2112/2116 RA BKN010
     FM211800 05014G22KT P6SM SCT025 BKN050=



000
FTUS42 KKEY 211100
TAFEYW
TAF
KEYW 211130Z 2112/2212 05012G20KT P6SM SCT010 BKN050
      TEMPO 2112/2116 RA BKN010
     FM211800 05014G22KT P6SM SCT025 BKN050=



000
FTUS42 KKEY 211100
TAFMTH
TAF
KMTH 211130Z 2112/2212 05012G20KT P6SM SCT010 BKN050
      TEMPO 2112/2116 RA BKN010
     FM211800 06015G22KT P6SM SCT020 BKN050=



000
FTUS42 KKEY 210800 AAB
TAFEYW
TAF AMD
KEYW 210855Z 2109/2206 05012G20KT P6SM SCT025 BKN035
      TEMPO 2109/2112 BKN025
     FM211200 05014G22KT P6SM SCT025 BKN050=



000
FTUS42 KKEY 210800 AAB
TAFEYW
TAF AMD
KEYW 210855Z 2109/2206 05012G20KT P6SM SCT025 BKN035
      TEMPO 2109/2112 BKN025
     FM211200 05014G22KT P6SM SCT025 BKN050=



000
FTUS42 KKEY 210800 AAA
TAFEYW
TAF AMD
KEYW 210804Z 2108/2206 05012G20KT P6SM SCT020 BKN035
      TEMPO 2108/2112 BKN025
     FM211200 05014G22KT P6SM SCT025 BKN050=



000
FTUS42 KKEY 210800 AAA
TAFMTH
TAF AMD
KMTH 210804Z 2108/2206 05012G20KT P6SM BKN035
      TEMPO 2108/2111 BKN020
     FM211100 06015G22KT P6SM SCT020 BKN050=



000
FTUS42 KKEY 210500
TAFEYW
TAF
KEYW 210525Z 2106/2206 05012G20KT P6SM SCT020 BKN035
      TEMPO 2106/2108 BKN025
     FM211200 05014G22KT P6SM SCT025 BKN050=



000
FTUS42 KKEY 210500
TAFEYW
TAF
KEYW 210525Z 2106/2206 05012G20KT P6SM SCT020 BKN035
      TEMPO 2106/2108 BKN025
     FM211200 05014G22KT P6SM SCT025 BKN050=



000
FTUS42 KKEY 210500
TAFMTH
TAF
KMTH 210525Z 2106/2206 05012G20KT P6SM BKN035
      TEMPO 2106/2108 BKN020
     FM211100 06015G22KT P6SM SCT020 BKN050=



000
FTUS42 KKEY 210200 AAA
TAFMTH
TAF AMD
KMTH 210234Z 2103/2124 05014G25KT P6SM FEW025 BKN040
      TEMPO 2103/2107 6SM -RA SCT015 OVC025
     FM210700 04013G18KT P6SM VCSH SCT020 OVC050
     FM211100 06015G22KT P6SM SCT018 BKN050 BKN110=



000
FTUS42 KKEY 202300 RRA
TAFMTH
TAF
KMTH 202341Z 2100/2124 04013G17KT P6SM BKN050 BKN110
     FM210400 04013G18KT P6SM SCT020 OVC050
     FM211100 06015G22KT P6SM SCT018 BKN050 BKN110=



000
FTUS42 KKEY 202300 RRA
TAFEYW
TAF
KEYW 202341Z 2100/2124 03010G18KT P6SM OVC040
     FM210400 05012G19KT P6SM SCT020 OVC040
     FM211200 05014G22KT P6SM SCT020 BKN060 BKN110=



000
FTUS42 KKEY 202300 RRA
TAFEYW
TAF
KEYW 202341Z 2100/2124 03010G18KT P6SM OVC040
     FM210400 05012G19KT P6SM SCT020 OVC040
     FM211200 05014G22KT P6SM SCT020 BKN060 BKN110=



000
FTUS42 KKEY 202300
TAFEYW
TAF
KEYW 202322Z 2100/2124 03010G18KT P6SM SCT027 BKN040 BKN110
     FM210100 05012G20KT P6SM SCT020 BKN060 BKN110=



000
FTUS42 KKEY 202300
TAFEYW
TAF
KEYW 202322Z 2100/2124 03010G18KT P6SM SCT027 BKN040 BKN110
     FM210100 05012G20KT P6SM SCT020 BKN060 BKN110=



000
FTUS42 KKEY 202300
TAFMTH
TAF
KMTH 202322Z 2100/2124 04013G17KT P6SM SCT026 BKN050 BKN110
     FM210900 05012G20KT P6SM SCT018 BKN050 BKN110=



    US Dept of Commerce
    National Oceanic and Atmospheric Administration
    National Weather Service
    1325 East West Highway
    Silver Spring, MD 20910
    Page Author: NWS Internet Services Team
Disclaimer
Information Quality
Credits
Glossary
Privacy Policy
Freedom of Information Act (FOIA)
About Us
Career Opportunities